Sturry, United Kingdom
Current Conditions -  °F | °C
As of 12:20 PM on Monday 20 Oct 2014 (Local Time) from EGMD Reporting Station
Few Clouds Few Clouds  
Wind Chill: 64°   Ceiling: Unl
Heat Index: 64°   Visibility: 6mi
Dew Point: 54°   Wind: 13mph
Humidity: 68%   Direction: 250°WSW
Pressure: 30.06"   Gusts: NA
Location:  51.3°N, 1.12°E
Report Text: EGMD 201120Z 25011KT 9999 FEW020 18/12 Q1018
Loading
Personal Weather Stations






























Interactive Weather Map
Tropical Storm Tracking
New forecast layout! Learn more

10-Day Weather Forecast

Advertisements
Track Severe Weather on mobile